CFE269 EHRD-EGLC
Flight info
| Callsign | CFE269 |
|---|---|
| Flight time | 0h 40m |
| Altitude | 20000 |
| Route | ABNED L980 XAMAN |
| Aircraft | RJ1H/M-SDFGIRWY/LB1 |
Departure
| Time | 2026-05-05 11:24 |
|---|---|
| Airport | Rotterdam The Hague Airport (EHRD) |
Arrival
| Time | 2026-05-05 12:05 |
|---|---|
| Airport | London City Airport (EGLC) |
| Time | Latitude | Longitude | Altitude | Speed | Heading |
|---|---|---|---|---|---|
| 2026-05-05 11:03 | 51.94996 | 4.43446 | 0 ft | 0 kts | 326° |
| 2026-05-05 11:17 | 51.94998 | 4.43445 | 0 ft | 2 kts | 326° |
| 2026-05-05 11:17 | 51.95020 | 4.43422 | 0 ft | 1 kts | 347° |
| 2026-05-05 11:18 | 51.95034 | 4.43436 | 0 ft | 4 kts | 53° |
| 2026-05-05 11:18 | 51.95047 | 4.43483 | 0 ft | 4 kts | 49° |
| 2026-05-05 11:18 | 51.95070 | 4.43529 | 0 ft | 8 kts | 56° |
| 2026-05-05 11:18 | 51.95125 | 4.43555 | 0 ft | 11 kts | 336° |
| 2026-05-05 11:19 | 51.95205 | 4.43474 | 0 ft | 16 kts | 327° |
| 2026-05-05 11:19 | 51.95233 | 4.43378 | 0 ft | 11 kts | 240° |
| 2026-05-05 11:19 | 51.95188 | 4.43264 | 0 ft | 14 kts | 237° |
| 2026-05-05 11:19 | 51.95138 | 4.43118 | 0 ft | 15 kts | 246° |
| 2026-05-05 11:20 | 51.95111 | 4.43016 | 0 ft | 0 kts | 262° |
| 2026-05-05 11:23 | 51.95109 | 4.43001 | 0 ft | 6 kts | 262° |
| 2026-05-05 11:23 | 51.95179 | 4.42876 | 1 ft | 24 kts | 324° |
| 2026-05-05 11:23 | 51.95309 | 4.43079 | 1 ft | 57 kts | 57° |
| 2026-05-05 11:24 | 51.95650 | 4.43930 | 17 ft | 117 kts | 57° |
| 2026-05-05 11:24 | 51.96106 | 4.45147 | 367 ft | 135 kts | 58° |
| 2026-05-05 11:24 | 51.96634 | 4.46574 | 691 ft | 159 kts | 58° |
| 2026-05-05 11:24 | 51.97194 | 4.48144 | 1131 ft | 170 kts | 59° |
| 2026-05-05 11:25 | 51.97814 | 4.49907 | 1565 ft | 182 kts | 53° |
| 2026-05-05 11:25 | 51.98852 | 4.50916 | 1978 ft | 187 kts | 1° |
| 2026-05-05 11:25 | 52.00057 | 4.49975 | 2106 ft | 212 kts | 307° |
| 2026-05-05 11:25 | 52.00315 | 4.47598 | 2234 ft | 233 kts | 253° |
| 2026-05-05 11:26 | 51.99898 | 4.45963 | 2480 ft | 242 kts | 246° |
| 2026-05-05 11:26 | 51.99126 | 4.43567 | 3424 ft | 245 kts | 242° |
| 2026-05-05 11:26 | 51.98281 | 4.41211 | 4463 ft | 237 kts | 243° |
| 2026-05-05 11:26 | 51.97820 | 4.37932 | 5867 ft | 216 kts | 267° |
| 2026-05-05 11:27 | 51.97718 | 4.36293 | 6552 ft | 216 kts | 261° |
| 2026-05-05 11:27 | 51.97444 | 4.33840 | 7250 ft | 228 kts | 258° |
| 2026-05-05 11:27 | 51.97111 | 4.31267 | 7925 ft | 238 kts | 258° |
| 2026-05-05 11:27 | 51.96747 | 4.28625 | 8739 ft | 242 kts | 257° |
| 2026-05-05 11:28 | 51.96364 | 4.25932 | 9556 ft | 247 kts | 257° |
| 2026-05-05 11:28 | 51.95973 | 4.23206 | 10330 ft | 250 kts | 257° |
| 2026-05-05 11:28 | 51.95581 | 4.20432 | 11056 ft | 254 kts | 258° |
| 2026-05-05 11:28 | 51.95194 | 4.17616 | 11799 ft | 257 kts | 258° |
| 2026-05-05 11:29 | 51.94803 | 4.14758 | 12492 ft | 262 kts | 258° |
| 2026-05-05 11:29 | 51.94408 | 4.11859 | 13223 ft | 265 kts | 258° |
| 2026-05-05 11:29 | 51.94013 | 4.08930 | 13926 ft | 268 kts | 258° |
| 2026-05-05 11:29 | 51.93670 | 4.05950 | 14580 ft | 269 kts | 261° |
| 2026-05-05 11:30 | 51.93387 | 4.02981 | 15212 ft | 271 kts | 261° |
| 2026-05-05 11:30 | 51.93107 | 3.99958 | 15851 ft | 273 kts | 261° |
| 2026-05-05 11:30 | 51.92831 | 3.96898 | 16482 ft | 275 kts | 261° |
| 2026-05-05 11:30 | 51.92552 | 3.93824 | 17075 ft | 279 kts | 259° |
| 2026-05-05 11:31 | 51.92258 | 3.90630 | 17315 ft | 294 kts | 258° |
| 2026-05-05 11:31 | 51.91925 | 3.87264 | 17471 ft | 311 kts | 259° |
| 2026-05-05 11:31 | 51.91574 | 3.83731 | 17619 ft | 325 kts | 259° |
| 2026-05-05 11:31 | 51.91210 | 3.80062 | 17814 ft | 334 kts | 259° |
| 2026-05-05 11:32 | 51.90847 | 3.76327 | 18216 ft | 337 kts | 258° |
| 2026-05-05 11:32 | 51.90473 | 3.72577 | 18564 ft | 338 kts | 258° |
| 2026-05-05 11:32 | 51.90097 | 3.68815 | 18928 ft | 339 kts | 259° |
| 2026-05-05 11:32 | 51.89719 | 3.65035 | 19266 ft | 341 kts | 259° |
| 2026-05-05 11:33 | 51.89342 | 3.61228 | 19468 ft | 347 kts | 259° |
| 2026-05-05 11:33 | 51.88950 | 3.57307 | 19483 ft | 359 kts | 259° |
| 2026-05-05 11:33 | 51.88549 | 3.53281 | 19700 ft | 362 kts | 258° |
| 2026-05-05 11:33 | 51.88144 | 3.49239 | 19889 ft | 367 kts | 258° |
| 2026-05-05 11:34 | 51.87730 | 3.45212 | 19947 ft | 359 kts | 259° |
| 2026-05-05 11:34 | 51.87328 | 3.41274 | 19965 ft | 360 kts | 259° |
| 2026-05-05 11:34 | 51.86918 | 3.37214 | 19976 ft | 370 kts | 258° |
| 2026-05-05 11:34 | 51.86498 | 3.33073 | 19977 ft | 373 kts | 258° |
| 2026-05-05 11:35 | 51.86073 | 3.28925 | 19982 ft | 377 kts | 258° |
| 2026-05-05 11:35 | 51.85637 | 3.24720 | 19980 ft | 380 kts | 259° |
| 2026-05-05 11:35 | 51.85198 | 3.20499 | 19978 ft | 381 kts | 258° |
| 2026-05-05 11:35 | 51.84773 | 3.16276 | 19975 ft | 381 kts | 259° |
| 2026-05-05 11:36 | 51.84445 | 3.12022 | 19974 ft | 381 kts | 262° |
| 2026-05-05 11:36 | 51.84185 | 3.07755 | 19973 ft | 382 kts | 262° |
| 2026-05-05 11:36 | 51.83942 | 3.03480 | 19972 ft | 382 kts | 263° |
| 2026-05-05 11:36 | 51.83686 | 2.99193 | 19972 ft | 382 kts | 263° |
| 2026-05-05 11:37 | 51.83429 | 2.94918 | 19971 ft | 382 kts | 262° |
| 2026-05-05 11:37 | 51.83165 | 2.90636 | 19976 ft | 382 kts | 262° |
| 2026-05-05 11:37 | 51.82878 | 2.86361 | 19973 ft | 383 kts | 263° |
| 2026-05-05 11:37 | 51.82594 | 2.82075 | 19973 ft | 384 kts | 262° |
| 2026-05-05 11:38 | 51.82300 | 2.77784 | 19972 ft | 383 kts | 262° |
| 2026-05-05 11:38 | 51.82010 | 2.73507 | 19973 ft | 383 kts | 261° |
| 2026-05-05 11:38 | 51.81724 | 2.69224 | 19973 ft | 383 kts | 262° |
| 2026-05-05 11:38 | 51.81427 | 2.64932 | 19973 ft | 384 kts | 263° |
| 2026-05-05 11:39 | 51.81122 | 2.60645 | 19976 ft | 384 kts | 262° |
| 2026-05-05 11:39 | 51.80509 | 2.56465 | 19980 ft | 381 kts | 248° |
| 2026-05-05 11:39 | 51.79565 | 2.52470 | 19981 ft | 381 kts | 248° |
| 2026-05-05 11:39 | 51.78599 | 2.48238 | 19983 ft | 382 kts | 250° |
| 2026-05-05 11:40 | 51.77786 | 2.44442 | 19981 ft | 385 kts | 250° |
| 2026-05-05 11:40 | 51.76955 | 2.40309 | 19983 ft | 388 kts | 251° |
| 2026-05-05 11:40 | 51.76151 | 2.36155 | 19979 ft | 388 kts | 252° |
| 2026-05-05 11:40 | 51.75347 | 2.31998 | 19979 ft | 387 kts | 252° |
| 2026-05-05 11:41 | 51.74551 | 2.27845 | 19977 ft | 387 kts | 251° |
| 2026-05-05 11:41 | 51.73759 | 2.23696 | 19979 ft | 387 kts | 251° |
| 2026-05-05 11:41 | 51.72968 | 2.19542 | 19980 ft | 388 kts | 252° |
| 2026-05-05 11:41 | 51.72164 | 2.15387 | 19981 ft | 388 kts | 252° |
| 2026-05-05 11:42 | 51.71359 | 2.11230 | 19864 ft | 390 kts | 251° |
| 2026-05-05 11:42 | 51.70547 | 2.07050 | 19343 ft | 389 kts | 250° |
| 2026-05-05 11:42 | 51.69734 | 2.02910 | 18834 ft | 386 kts | 252° |
| 2026-05-05 11:42 | 51.68928 | 1.98796 | 18332 ft | 383 kts | 251° |
| 2026-05-05 11:43 | 51.68131 | 1.94715 | 17780 ft | 380 kts | 251° |
| 2026-05-05 11:43 | 51.67337 | 1.90678 | 17225 ft | 377 kts | 251° |
| 2026-05-05 11:43 | 51.66545 | 1.86666 | 16677 ft | 374 kts | 252° |
| 2026-05-05 11:43 | 51.65757 | 1.82685 | 16133 ft | 371 kts | 251° |
| 2026-05-05 11:44 | 51.64970 | 1.78752 | 15607 ft | 368 kts | 251° |
| 2026-05-05 11:44 | 51.64186 | 1.74844 | 15083 ft | 366 kts | 252° |
| 2026-05-05 11:44 | 51.63410 | 1.70945 | 14581 ft | 364 kts | 252° |
| 2026-05-05 11:44 | 51.62650 | 1.67082 | 14071 ft | 361 kts | 252° |
| 2026-05-05 11:45 | 51.61901 | 1.63250 | 13553 ft | 358 kts | 252° |
| 2026-05-05 11:45 | 51.61152 | 1.59443 | 12992 ft | 355 kts | 252° |
| 2026-05-05 11:45 | 51.60389 | 1.55692 | 12442 ft | 352 kts | 252° |
| 2026-05-05 11:45 | 51.59646 | 1.51963 | 11901 ft | 348 kts | 252° |
| 2026-05-05 11:46 | 51.58923 | 1.48325 | 11385 ft | 345 kts | 252° |
| 2026-05-05 11:46 | 51.58187 | 1.44624 | 10855 ft | 340 kts | 252° |
| 2026-05-05 11:46 | 51.57466 | 1.41044 | 10339 ft | 334 kts | 252° |
| 2026-05-05 11:46 | 51.56767 | 1.37613 | 9825 ft | 306 kts | 252° |
| 2026-05-05 11:47 | 51.56114 | 1.34411 | 9268 ft | 302 kts | 252° |
| 2026-05-05 11:47 | 51.55470 | 1.31263 | 9048 ft | 292 kts | 252° |
| 2026-05-05 11:47 | 51.54825 | 1.28117 | 8282 ft | 302 kts | 252° |
| 2026-05-05 11:47 | 51.54175 | 1.24965 | 7820 ft | 290 kts | 253° |
| 2026-05-05 11:48 | 51.52946 | 1.18954 | 6900 ft | 279 kts | 252° |
| 2026-05-05 11:48 | 51.52332 | 1.15962 | 6463 ft | 285 kts | 252° |
| 2026-05-05 11:48 | 51.51723 | 1.12981 | 6153 ft | 283 kts | 252° |
| 2026-05-05 11:49 | 51.51117 | 1.10010 | 6032 ft | 278 kts | 253° |
| 2026-05-05 11:49 | 51.50514 | 1.07077 | 6003 ft | 278 kts | 252° |
| 2026-05-05 11:49 | 51.49899 | 1.04125 | 5996 ft | 280 kts | 253° |
| 2026-05-05 11:49 | 51.49292 | 1.01175 | 5995 ft | 275 kts | 253° |
| 2026-05-05 11:50 | 51.48696 | 0.98242 | 5993 ft | 278 kts | 253° |
| 2026-05-05 11:50 | 51.48097 | 0.95325 | 5990 ft | 275 kts | 252° |
| 2026-05-05 11:50 | 51.47556 | 0.92367 | 5986 ft | 278 kts | 263° |
| 2026-05-05 11:50 | 51.47492 | 0.89305 | 5999 ft | 275 kts | 272° |
| 2026-05-05 11:51 | 51.47563 | 0.86212 | 5880 ft | 280 kts | 274° |
| 2026-05-05 11:51 | 51.47670 | 0.83105 | 5704 ft | 277 kts | 276° |
| 2026-05-05 11:51 | 51.47798 | 0.80002 | 5525 ft | 280 kts | 276° |
| 2026-05-05 11:51 | 51.47935 | 0.76918 | 5357 ft | 276 kts | 275° |
| 2026-05-05 11:52 | 51.48067 | 0.73801 | 5170 ft | 280 kts | 276° |
| 2026-05-05 11:52 | 51.48202 | 0.70699 | 4988 ft | 278 kts | 276° |
| 2026-05-05 11:52 | 51.48331 | 0.67629 | 4813 ft | 273 kts | 275° |
| 2026-05-05 11:52 | 51.48454 | 0.64634 | 4625 ft | 265 kts | 275° |
| 2026-05-05 11:53 | 51.48560 | 0.61713 | 4436 ft | 259 kts | 276° |
| 2026-05-05 11:53 | 51.48666 | 0.58859 | 4243 ft | 253 kts | 275° |
| 2026-05-05 11:53 | 51.48767 | 0.56063 | 4066 ft | 248 kts | 276° |
| 2026-05-05 11:53 | 51.48857 | 0.53379 | 3995 ft | 239 kts | 276° |
| 2026-05-05 11:54 | 51.48947 | 0.50747 | 3975 ft | 235 kts | 276° |
| 2026-05-05 11:54 | 51.49041 | 0.48141 | 3979 ft | 233 kts | 274° |
| 2026-05-05 11:54 | 51.48722 | 0.45613 | 3992 ft | 233 kts | 243° |
| 2026-05-05 11:54 | 51.47921 | 0.43311 | 3891 ft | 240 kts | 241° |
| 2026-05-05 11:55 | 51.47102 | 0.41001 | 3769 ft | 238 kts | 241° |
| 2026-05-05 11:55 | 51.46263 | 0.38718 | 3636 ft | 237 kts | 240° |
| 2026-05-05 11:55 | 51.45401 | 0.36446 | 3507 ft | 238 kts | 239° |
| 2026-05-05 11:55 | 51.44535 | 0.34187 | 3377 ft | 238 kts | 239° |
| 2026-05-05 11:56 | 51.43664 | 0.31919 | 3253 ft | 238 kts | 240° |
| 2026-05-05 11:56 | 51.43044 | 0.29532 | 3124 ft | 229 kts | 266° |
| 2026-05-05 11:56 | 51.43023 | 0.27048 | 3062 ft | 215 kts | 275° |
| 2026-05-05 11:56 | 51.43063 | 0.24771 | 3079 ft | 196 kts | 277° |
| 2026-05-05 11:57 | 51.43134 | 0.22581 | 3067 ft | 197 kts | 276° |
| 2026-05-05 11:57 | 51.43230 | 0.20384 | 2979 ft | 197 kts | 277° |
| 2026-05-05 11:57 | 51.43325 | 0.18210 | 2852 ft | 195 kts | 277° |
| 2026-05-05 11:57 | 51.43427 | 0.16040 | 2680 ft | 197 kts | 277° |
| 2026-05-05 11:58 | 51.43526 | 0.13848 | 2528 ft | 197 kts | 277° |
| 2026-05-05 11:58 | 51.43606 | 0.11674 | 2344 ft | 195 kts | 275° |
| 2026-05-05 11:58 | 51.43690 | 0.09513 | 2141 ft | 196 kts | 279° |
| 2026-05-05 11:58 | 51.43757 | 0.07320 | 2039 ft | 196 kts | 274° |
| 2026-05-05 11:59 | 51.43841 | 0.05164 | 2029 ft | 192 kts | 275° |
| 2026-05-05 11:59 | 51.43923 | 0.03038 | 2023 ft | 190 kts | 275° |
| 2026-05-05 11:59 | 51.43967 | 0.00954 | 2025 ft | 188 kts | 275° |
| 2026-05-05 11:59 | 51.44020 | -0.01188 | 2012 ft | 193 kts | 277° |
| 2026-05-05 12:00 | 51.44082 | -0.03292 | 1999 ft | 187 kts | 276° |
| 2026-05-05 12:00 | 51.44148 | -0.05388 | 2003 ft | 190 kts | 275° |
| 2026-05-05 12:00 | 51.44222 | -0.07486 | 2010 ft | 188 kts | 276° |
| 2026-05-05 12:00 | 51.44621 | -0.09421 | 2015 ft | 184 kts | 314° |
| 2026-05-05 12:01 | 51.45619 | -0.10637 | 2026 ft | 179 kts | 334° |
| 2026-05-05 12:01 | 51.46768 | -0.11394 | 2038 ft | 180 kts | 344° |
| 2026-05-05 12:01 | 51.47971 | -0.11893 | 2036 ft | 176 kts | 351° |
| 2026-05-05 12:01 | 51.49134 | -0.11571 | 2024 ft | 173 kts | 30° |
| 2026-05-05 12:02 | 51.50086 | -0.10397 | 2026 ft | 172 kts | 42° |
| 2026-05-05 12:02 | 51.50814 | -0.09029 | 2025 ft | 157 kts | 64° |
| 2026-05-05 12:02 | 51.50852 | -0.07234 | 1980 ft | 168 kts | 91° |
| 2026-05-05 12:02 | 51.50793 | -0.05433 | 1910 ft | 154 kts | 85° |
| 2026-05-05 12:03 | 51.50808 | -0.03787 | 1865 ft | 142 kts | 94° |
| 2026-05-05 12:03 | 51.50761 | -0.02191 | 1642 ft | 144 kts | 91° |
| 2026-05-05 12:03 | 51.50695 | -0.00546 | 1204 ft | 149 kts | 88° |
| 2026-05-05 12:03 | 51.50668 | 0.01095 | 802 ft | 143 kts | 90° |
| 2026-05-05 12:04 | 51.50615 | 0.02635 | 430 ft | 132 kts | 92° |
| 2026-05-05 12:04 | 51.50571 | 0.04056 | 149 ft | 124 kts | 89° |
| 2026-05-05 12:04 | 51.50527 | 0.05342 | 24 ft | 97 kts | 93° |
| 2026-05-05 12:04 | 51.50503 | 0.06220 | 24 ft | 50 kts | 93° |
| 2026-05-05 12:05 | 51.50485 | 0.06560 | 25 ft | 19 kts | 126° |
| 2026-05-05 12:05 | 51.50409 | 0.06515 | 24 ft | 13 kts | 268° |
| 2026-05-05 12:05 | 51.50412 | 0.06391 | 24 ft | 10 kts | 272° |
| 2026-05-05 12:05 | 51.50415 | 0.06293 | 24 ft | 8 kts | 273° |
| 2026-05-05 12:06 | 51.50417 | 0.06204 | 24 ft | 9 kts | 273° |
| 2026-05-05 12:06 | 51.50422 | 0.06076 | 24 ft | 13 kts | 273° |
| 2026-05-05 12:06 | 51.50428 | 0.05904 | 24 ft | 17 kts | 272° |
| 2026-05-05 12:06 | 51.50432 | 0.05710 | 26 ft | 17 kts | 273° |
| 2026-05-05 12:07 | 51.50438 | 0.05533 | 24 ft | 9 kts | 273° |
| 2026-05-05 12:07 | 51.50439 | 0.05503 | 24 ft | 4 kts | 273° |
| 2026-05-05 12:07 | 51.50442 | 0.05412 | 24 ft | 13 kts | 273° |
| 2026-05-05 12:07 | 51.50448 | 0.05219 | 24 ft | 22 kts | 273° |
| 2026-05-05 12:08 | 51.50463 | 0.04989 | 26 ft | 16 kts | 276° |
| 2026-05-05 12:08 | 51.50457 | 0.04853 | 26 ft | 10 kts | 214° |
| 2026-05-05 12:08 | 51.50436 | 0.04827 | 25 ft | 3 kts | 274° |
| 2026-05-05 12:08 | 51.50441 | 0.04814 | 24 ft | 2 kts | 303° |
| 2026-05-05 12:09 | 51.50442 | 0.04811 | 24 ft | 0 kts | 303° |